Time;durP1;ratioP1;P1;durP2;ratioP2;P2;SDS_P1;SDS_P2;PMS_P1;PMS_P2;Temp;Humidity;BMP_temperature;BMP_pressure;BME280_temperature;BME280_humidity;BME280_pressure;Samples;Min_cycle;Max_cycle;Signal;HPM_P1;HPM_P2
2022/10/30 00:00:38;;;;;;;18.15;7.13;;;;;;;;;;5016836;28;20417;-77
2022/10/30 00:03:04;;;;;;;22.10;7.40;;;;;;;;;;5031612;28;20114;-77
2022/10/30 00:05:31;;;;;;;19.27;7.70;;;;;;;;;;5032454;28;20053;-77
2022/10/30 00:07:57;;;;;;;18.75;7.82;;;;;;;;;;5031116;28;20051;-77
2022/10/30 00:10:24;;;;;;;16.33;8.15;;;;;;;;;;5011875;28;20053;-79
2022/10/30 00:12:51;;;;;;;20.23;8.60;;;;;;;;;;5030265;28;20509;-77
2022/10/30 00:15:17;;;;;;;20.85;8.80;;;;;;;;;;5016702;28;20080;-79
2022/10/30 00:17:43;;;;;;;20.83;7.80;;;;;;;;;;5012261;28;20248;-76
2022/10/30 00:20:10;;;;;;;18.00;7.88;;;;;;;;;;5010471;28;20049;-79
2022/10/30 00:22:36;;;;;;;23.02;7.95;;;;;;;;;;5010690;28;20073;-78
2022/10/30 00:25:03;;;;;;;18.95;6.72;;;;;;;;;;5011647;28;20045;-77
2022/10/30 00:27:30;;;;;;;19.38;7.78;;;;;;;;;;5013345;28;20053;-78
2022/10/30 00:29:57;;;;;;;27.95;8.30;;;;;;;;;;5012719;28;20050;-78
2022/10/30 00:32:24;;;;;;;22.48;8.48;;;;;;;;;;5012696;28;20053;-77
2022/10/30 00:34:50;;;;;;;18.00;7.32;;;;;;;;;;5011825;28;20494;-77
2022/10/30 00:37:17;;;;;;;17.08;7.03;;;;;;;;;;5012800;28;20058;-77
2022/10/30 00:39:43;;;;;;;23.48;7.82;;;;;;;;;;5011933;28;20054;-78
2022/10/30 00:42:13;;;;;;;20.42;7.65;;;;;;;;;;5013355;28;20057;-78
2022/10/30 00:44:43;;;;;;;19.55;7.45;;;;;;;;;;5012079;28;20061;-79
2022/10/30 00:47:11;;;;;;;17.33;7.47;;;;;;;;;;5012728;28;20050;-76
2022/10/30 00:49:44;;;;;;;20.40;7.82;;;;;;;;;;5010681;28;20056;-77
2022/10/30 00:52:10;;;;;;;21.73;7.78;;;;;;;;;;4994329;28;20050;-78
2022/10/30 00:54:37;;;;;;;21.42;7.72;;;;;;;;;;5011304;28;20314;-79
2022/10/30 00:57:05;;;;;;;17.98;7.18;;;;;;;;;;5014169;28;20132;-79
2022/10/30 00:59:33;;;;;;;24.00;6.90;;;;;;;;;;5012242;28;20054;-79
2022/10/30 01:02:00;;;;;;;19.40;7.20;;;;;;;;;;5012981;28;20050;-77
2022/10/30 01:04:27;;;;;;;20.00;7.38;;;;;;;;;;5022862;28;20049;-77
2022/10/30 01:06:56;;;;;;;17.48;7.32;;;;;;;;;;5031305;28;20050;-79
2022/10/30 01:09:23;;;;;;;18.40;6.90;;;;;;;;;;5029493;28;20057;-79
2022/10/30 01:11:49;;;;;;;23.40;7.28;;;;;;;;;;5017135;28;20075;-77
2022/10/30 01:14:18;;;;;;;21.13;7.30;;;;;;;;;;5015024;28;20128;-76
2022/10/30 01:16:56;;;;;;;20.80;7.07;;;;;;;;;;5015458;28;20053;-79
2022/10/30 01:19:22;;;;;;;18.83;7.13;;;;;;;;;;5013134;28;20060;-79
2022/10/30 01:21:57;;;;;;;15.23;6.72;;;;;;;;;;5013522;28;20072;-77
2022/10/30 01:24:38;;;;;;;15.55;5.97;;;;;;;;;;5010780;28;20048;-77
2022/10/30 01:27:08;;;;;;;23.17;7.22;;;;;;;;;;4996177;28;20065;-76
2022/10/30 01:29:43;;;;;;;20.85;7.10;;;;;;;;;;4997426;28;20447;-77
2022/10/30 01:32:28;;;;;;;19.58;6.65;;;;;;;;;;5016110;28;20680;-78
2022/10/30 01:35:05;;;;;;;23.97;6.67;;;;;;;;;;5016960;28;20072;-77
2022/10/30 01:37:33;;;;;;;17.40;6.47;;;;;;;;;;5020118;28;20046;-78
2022/10/30 01:40:04;;;;;;;23.38;6.60;;;;;;;;;;5017383;28;20050;-80
2022/10/30 01:42:43;;;;;;;19.52;7.10;;;;;;;;;;5015946;28;20045;-77
2022/10/30 01:45:32;;;;;;;18.67;7.22;;;;;;;;;;5018194;28;20109;-77
2022/10/30 01:48:17;;;;;;;21.10;6.95;;;;;;;;;;4992002;28;20042;-79
2022/10/30 01:50:44;;;;;;;15.87;6.67;;;;;;;;;;5026214;28;20105;-78
2022/10/30 01:53:17;;;;;;;18.73;6.40;;;;;;;;;;5018465;28;20050;-77
2022/10/30 01:56:03;;;;;;;18.55;6.78;;;;;;;;;;5015149;28;20060;-79
2022/10/30 01:58:33;;;;;;;26.40;6.40;;;;;;;;;;5005487;28;20042;-78
2022/10/30 02:00:59;;;;;;;19.83;6.75;;;;;;;;;;5014264;28;20463;-78
2022/10/30 02:03:27;;;;;;;13.93;6.30;;;;;;;;;;5012139;28;20046;-78
2022/10/30 02:05:53;;;;;;;18.52;6.78;;;;;;;;;;5012447;28;20049;-78
2022/10/30 02:08:21;;;;;;;14.48;5.88;;;;;;;;;;5011864;28;20046;-78
2022/10/30 02:10:48;;;;;;;20.90;5.68;;;;;;;;;;5011399;28;20050;-76
2022/10/30 02:13:14;;;;;;;13.77;6.00;;;;;;;;;;5011585;28;20624;-75
2022/10/30 02:15:42;;;;;;;13.43;5.72;;;;;;;;;;5013180;28;20060;-77
2022/10/30 02:18:09;;;;;;;17.42;5.95;;;;;;;;;;5013322;28;20048;-77
2022/10/30 02:20:36;;;;;;;16.55;5.43;;;;;;;;;;4995244;28;20423;-77
2022/10/30 02:23:03;;;;;;;18.50;6.18;;;;;;;;;;5010829;28;20049;-77
2022/10/30 02:25:29;;;;;;;13.70;5.50;;;;;;;;;;5012074;28;20128;-77
2022/10/30 02:27:56;;;;;;;19.10;6.00;;;;;;;;;;5012347;28;20042;-78
2022/10/30 02:30:22;;;;;;;11.65;5.05;;;;;;;;;;5013251;28;20050;-78
2022/10/30 02:32:49;;;;;;;16.02;5.53;;;;;;;;;;5012996;28;20457;-79
2022/10/30 02:35:15;;;;;;;19.55;5.82;;;;;;;;;;4996433;28;20049;-78
2022/10/30 02:37:42;;;;;;;13.45;5.88;;;;;;;;;;5014211;28;20056;-79
2022/10/30 02:40:08;;;;;;;24.23;6.40;;;;;;;;;;5011647;28;20096;-79
2022/10/30 02:42:35;;;;;;;17.92;6.25;;;;;;;;;;5013053;28;20076;-77
2022/10/30 02:45:01;;;;;;;12.68;5.40;;;;;;;;;;5012960;28;20046;-78
2022/10/30 02:47:27;;;;;;;12.48;5.65;;;;;;;;;;5014077;28;20054;-79
2022/10/30 02:49:54;;;;;;;10.80;5.68;;;;;;;;;;5013014;28;20057;-79
2022/10/30 02:52:20;;;;;;;18.27;5.10;;;;;;;;;;5011938;28;20148;-77
2022/10/30 02:54:46;;;;;;;12.77;5.28;;;;;;;;;;5012499;28;20109;-75
2022/10/30 02:57:13;;;;;;;10.38;4.95;;;;;;;;;;5017783;28;20072;-77
2022/10/30 02:59:39;;;;;;;15.07;4.72;;;;;;;;;;5011602;28;20061;-77
2022/10/30 03:02:06;;;;;;;17.92;5.50;;;;;;;;;;5012098;28;20137;-78
2022/10/30 03:04:32;;;;;;;16.05;5.50;;;;;;;;;;5010725;28;20064;-78
2022/10/30 03:06:58;;;;;;;14.45;5.13;;;;;;;;;;4994486;28;20045;-77
2022/10/30 03:09:25;;;;;;;12.88;5.28;;;;;;;;;;5009477;28;20691;-77
2022/10/30 03:11:51;;;;;;;13.90;5.20;;;;;;;;;;5011668;28;20426;-75
2022/10/30 03:14:17;;;;;;;14.25;4.82;;;;;;;;;;4991660;28;20721;-77
2022/10/30 03:16:44;;;;;;;12.27;5.50;;;;;;;;;;5010659;28;20057;-77
2022/10/30 03:19:10;;;;;;;9.73;4.75;;;;;;;;;;5009463;28;20428;-77
2022/10/30 03:21:36;;;;;;;14.20;5.45;;;;;;;;;;5010840;28;20050;-78
2022/10/30 03:24:03;;;;;;;18.50;6.28;;;;;;;;;;5010110;28;20053;-77
2022/10/30 03:26:29;;;;;;;14.88;5.45;;;;;;;;;;5012670;28;20053;-78
2022/10/30 03:28:56;;;;;;;12.90;5.32;;;;;;;;;;5012346;28;20382;-78
2022/10/30 03:31:22;;;;;;;15.25;5.45;;;;;;;;;;5012756;28;20045;-78
2022/10/30 03:33:48;;;;;;;17.75;5.60;;;;;;;;;;4992507;28;20042;-78
2022/10/30 03:36:15;;;;;;;12.60;5.47;;;;;;;;;;5010904;28;20046;-77
2022/10/30 03:38:41;;;;;;;14.40;4.95;;;;;;;;;;5010515;28;20077;-76
2022/10/30 03:41:08;;;;;;;22.95;6.45;;;;;;;;;;5010429;28;20046;-77
2022/10/30 03:43:34;;;;;;;13.00;5.03;;;;;;;;;;5009867;28;20057;-76
2022/10/30 03:46:01;;;;;;;18.95;6.03;;;;;;;;;;5010802;28;20065;-77
2022/10/30 03:48:28;;;;;;;16.70;5.38;;;;;;;;;;5010601;28;20041;-77
2022/10/30 03:50:55;;;;;;;13.18;5.22;;;;;;;;;;5010202;28;20057;-76
2022/10/30 03:53:22;;;;;;;12.68;4.60;;;;;;;;;;4991704;28;20669;-76
2022/10/30 03:55:49;;;;;;;14.45;4.90;;;;;;;;;;5009385;28;20050;-77
2022/10/30 03:58:16;;;;;;;15.30;4.82;;;;;;;;;;5010133;28;20216;-77
2022/10/30 04:00:42;;;;;;;13.60;4.10;;;;;;;;;;5009983;28;20201;-77
2022/10/30 04:03:09;;;;;;;11.88;4.65;;;;;;;;;;5008900;28;20540;-79
2022/10/30 04:05:35;;;;;;;11.05;4.13;;;;;;;;;;4988712;28;20046;-77
2022/10/30 04:08:03;;;;;;;15.73;4.72;;;;;;;;;;4990645;28;20050;-77
2022/10/30 04:10:30;;;;;;;11.75;3.97;;;;;;;;;;4988553;28;20052;-78
2022/10/30 04:13:00;;;;;;;21.08;4.82;;;;;;;;;;4989224;28;20065;-78
2022/10/30 04:15:26;;;;;;;12.73;4.10;;;;;;;;;;5006011;28;20054;-77
2022/10/30 04:17:53;;;;;;;20.42;4.35;;;;;;;;;;5010307;28;20061;-77
2022/10/30 04:20:20;;;;;;;15.88;4.28;;;;;;;;;;5010223;28;20056;-78
2022/10/30 04:22:46;;;;;;;13.00;4.70;;;;;;;;;;5010306;28;20132;-75
2022/10/30 04:25:13;;;;;;;14.13;4.55;;;;;;;;;;5009040;28;20114;-78
2022/10/30 04:27:43;;;;;;;8.93;3.80;;;;;;;;;;5016120;28;20046;-76
2022/10/30 04:30:10;;;;;;;12.88;4.30;;;;;;;;;;5034694;28;20048;-76
2022/10/30 04:32:50;;;;;;;10.20;3.95;;;;;;;;;;5032346;28;20057;-78
2022/10/30 04:35:18;;;;;;;13.05;4.07;;;;;;;;;;5011965;28;20134;-77
2022/10/30 04:37:51;;;;;;;14.73;4.55;;;;;;;;;;5010134;28;20046;-77
2022/10/30 04:40:17;;;;;;;17.73;4.38;;;;;;;;;;5008464;28;20200;-77
2022/10/30 04:42:47;;;;;;;13.65;4.38;;;;;;;;;;5008175;28;20068;-77
2022/10/30 04:45:13;;;;;;;9.55;4.07;;;;;;;;;;5010414;28;20052;-77
2022/10/30 04:47:40;;;;;;;10.40;3.95;;;;;;;;;;5012569;28;20573;-77
2022/10/30 04:50:07;;;;;;;12.57;4.38;;;;;;;;;;5012413;28;20569;-77
2022/10/30 04:52:34;;;;;;;13.98;4.60;;;;;;;;;;5012691;28;20058;-77
2022/10/30 04:55:00;;;;;;;11.82;4.93;;;;;;;;;;5012693;28;20054;-77
2022/10/30 04:57:27;;;;;;;15.80;4.43;;;;;;;;;;5014189;28;20058;-79
2022/10/30 04:59:53;;;;;;;17.48;4.40;;;;;;;;;;5013237;28;20430;-77
2022/10/30 05:02:19;;;;;;;20.15;5.05;;;;;;;;;;5012393;28;20049;-79
2022/10/30 05:04:46;;;;;;;11.00;4.18;;;;;;;;;;5012081;28;20407;-77
2022/10/30 05:07:12;;;;;;;10.55;3.75;;;;;;;;;;5012942;28;20052;-77
2022/10/30 05:09:39;;;;;;;12.13;3.60;;;;;;;;;;5011877;28;20052;-77
2022/10/30 05:12:05;;;;;;;10.55;3.70;;;;;;;;;;5013780;28;20069;-79
2022/10/30 05:14:32;;;;;;;23.88;5.25;;;;;;;;;;5012987;28;20055;-78
2022/10/30 05:16:58;;;;;;;16.70;4.30;;;;;;;;;;5015599;28;20070;-79
2022/10/30 05:19:25;;;;;;;8.50;3.28;;;;;;;;;;5011488;28;20054;-78
2022/10/30 05:21:54;;;;;;;14.05;4.05;;;;;;;;;;5012464;28;20530;-79
2022/10/30 05:24:23;;;;;;;9.05;3.55;;;;;;;;;;5008417;28;20602;-78
2022/10/30 05:26:49;;;;;;;14.90;3.88;;;;;;;;;;5014808;28;20038;-78
2022/10/30 05:29:16;;;;;;;11.70;3.63;;;;;;;;;;5016719;28;20053;-78
2022/10/30 05:31:42;;;;;;;11.93;3.63;;;;;;;;;;5016680;28;20056;-77
2022/10/30 05:34:08;;;;;;;15.50;3.58;;;;;;;;;;5012675;28;20513;-78
2022/10/30 05:36:35;;;;;;;12.25;3.85;;;;;;;;;;5012874;28;20057;-78
2022/10/30 05:39:01;;;;;;;14.05;3.67;;;;;;;;;;5011818;28;20373;-76
2022/10/30 05:41:28;;;;;;;12.40;3.65;;;;;;;;;;5011590;28;20050;-77
2022/10/30 05:43:54;;;;;;;14.43;3.67;;;;;;;;;;5011424;28;20383;-77
2022/10/30 05:46:21;;;;;;;13.27;3.35;;;;;;;;;;5009552;28;20753;-77
2022/10/30 05:48:47;;;;;;;13.90;4.05;;;;;;;;;;5007352;28;20046;-78
2022/10/30 05:51:14;;;;;;;14.18;3.53;;;;;;;;;;5007532;28;20401;-77
2022/10/30 05:53:40;;;;;;;13.90;3.83;;;;;;;;;;5003702;28;20061;-75
2022/10/30 05:56:06;;;;;;;11.52;3.67;;;;;;;;;;5006539;28;20053;-76
2022/10/30 05:58:33;;;;;;;11.38;3.20;;;;;;;;;;5006380;28;20050;-76
2022/10/30 06:01:04;;;;;;;17.33;3.13;;;;;;;;;;5006280;28;20054;-77
2022/10/30 06:03:30;;;;;;;8.25;3.20;;;;;;;;;;5007868;28;20100;-77
2022/10/30 06:05:59;;;;;;;17.23;3.65;;;;;;;;;;5008519;28;20042;-75
2022/10/30 06:08:25;;;;;;;11.65;3.50;;;;;;;;;;5005169;28;20056;-79
2022/10/30 06:10:53;;;;;;;10.32;4.45;;;;;;;;;;5006274;28;20049;-77
2022/10/30 06:13:22;;;;;;;16.45;5.43;;;;;;;;;;5001368;28;20052;-76
2022/10/30 06:15:49;;;;;;;11.30;3.95;;;;;;;;;;5003820;28;20045;-77
2022/10/30 06:18:15;;;;;;;11.55;3.83;;;;;;;;;;5005029;28;20168;-77
2022/10/30 06:20:42;;;;;;;16.65;4.18;;;;;;;;;;5007689;28;20057;-77
2022/10/30 06:23:09;;;;;;;11.55;3.45;;;;;;;;;;5006330;28;20050;-78
2022/10/30 06:25:35;;;;;;;16.13;3.55;;;;;;;;;;4990413;28;20046;-78
2022/10/30 06:28:06;;;;;;;16.13;3.88;;;;;;;;;;5007489;28;20074;-79
2022/10/30 06:30:33;;;;;;;16.85;3.88;;;;;;;;;;4991989;28;20089;-78
2022/10/30 06:33:00;;;;;;;8.65;3.03;;;;;;;;;;5007184;28;20056;-76
2022/10/30 06:35:27;;;;;;;14.68;3.60;;;;;;;;;;5008196;28;20465;-76
2022/10/30 06:37:55;;;;;;;10.00;3.90;;;;;;;;;;5008734;28;20446;-79
2022/10/30 06:40:21;;;;;;;10.48;3.45;;;;;;;;;;5007832;28;20050;-76
2022/10/30 06:42:49;;;;;;;10.15;3.15;;;;;;;;;;5007435;28;20208;-76
2022/10/30 06:45:16;;;;;;;11.07;3.38;;;;;;;;;;5007135;28;20048;-76
2022/10/30 06:47:42;;;;;;;11.98;3.78;;;;;;;;;;5008436;28;20137;-76
2022/10/30 06:50:13;;;;;;;13.88;3.55;;;;;;;;;;5008446;28;20053;-78
2022/10/30 06:52:39;;;;;;;14.13;4.05;;;;;;;;;;5005282;28;20144;-77
2022/10/30 06:55:06;;;;;;;14.90;3.88;;;;;;;;;;4986783;28;20054;-77
2022/10/30 06:57:32;;;;;;;17.05;3.92;;;;;;;;;;5006019;28;20092;-74
2022/10/30 06:59:59;;;;;;;11.88;3.70;;;;;;;;;;5007359;28;20450;-77
2022/10/30 07:02:25;;;;;;;10.68;3.92;;;;;;;;;;4998532;28;20057;-76
2022/10/30 07:04:52;;;;;;;16.05;4.50;;;;;;;;;;5009492;28;20042;-78
2022/10/30 07:07:18;;;;;;;17.27;4.57;;;;;;;;;;5020478;28;20038;-78
2022/10/30 07:09:48;;;;;;;16.67;3.80;;;;;;;;;;5006863;28;20058;-78
2022/10/30 07:12:14;;;;;;;12.48;3.80;;;;;;;;;;5002436;28;20054;-76
2022/10/30 07:14:41;;;;;;;10.68;4.00;;;;;;;;;;4999727;28;20310;-77
2022/10/30 07:17:07;;;;;;;16.67;3.80;;;;;;;;;;5009613;28;20479;-76
2022/10/30 07:19:34;;;;;;;12.43;3.53;;;;;;;;;;5007319;28;20248;-77
2022/10/30 07:22:01;;;;;;;11.75;2.90;;;;;;;;;;5007374;28;20038;-75
2022/10/30 07:24:27;;;;;;;10.90;3.58;;;;;;;;;;5005504;28;20498;-77
2022/10/30 07:26:54;;;;;;;9.85;3.20;;;;;;;;;;5005333;28;20050;-77
2022/10/30 07:29:20;;;;;;;7.65;2.80;;;;;;;;;;4992693;28;20042;-78
2022/10/30 07:31:48;;;;;;;14.75;3.63;;;;;;;;;;4998705;28;20046;-78
2022/10/30 07:34:28;;;;;;;8.93;2.67;;;;;;;;;;5005244;28;20552;-78
2022/10/30 07:36:54;;;;;;;16.45;3.35;;;;;;;;;;5006042;28;20054;-77
2022/10/30 07:39:21;;;;;;;13.95;3.95;;;;;;;;;;5004232;28;20085;-77
2022/10/30 07:41:48;;;;;;;14.77;3.90;;;;;;;;;;5011954;28;20144;-76
2022/10/30 07:44:15;;;;;;;12.98;3.58;;;;;;;;;;5005751;28;20073;-78
2022/10/30 07:46:42;;;;;;;15.02;4.65;;;;;;;;;;4987605;28;20050;-77
2022/10/30 07:49:08;;;;;;;15.77;3.92;;;;;;;;;;5004319;28;20064;-77
2022/10/30 07:51:34;;;;;;;9.48;3.88;;;;;;;;;;5009712;28;20050;-76
2022/10/30 07:54:01;;;;;;;12.02;3.33;;;;;;;;;;5017058;28;20050;-77
2022/10/30 07:56:27;;;;;;;20.45;6.50;;;;;;;;;;5021949;28;20065;-76
2022/10/30 07:58:54;;;;;;;39.28;14.10;;;;;;;;;;5003407;28;20129;-76
2022/10/30 08:01:20;;;;;;;33.88;13.27;;;;;;;;;;5004740;28;20050;-76
2022/10/30 08:03:46;;;;;;;38.08;15.98;;;;;;;;;;5001885;28;20050;-75
2022/10/30 08:06:13;;;;;;;35.85;15.18;;;;;;;;;;5004073;28;20049;-75
2022/10/30 08:08:39;;;;;;;43.72;18.35;;;;;;;;;;5004003;28;20046;-77
2022/10/30 08:11:08;;;;;;;30.75;11.43;;;;;;;;;;5003298;28;20085;-78
2022/10/30 08:13:35;;;;;;;25.65;7.15;;;;;;;;;;5004808;28;20069;-78
2022/10/30 08:16:01;;;;;;;14.65;4.00;;;;;;;;;;5008001;28;20061;-78
2022/10/30 08:18:27;;;;;;;12.18;3.60;;;;;;;;;;4994993;28;20062;-78
2022/10/30 08:20:54;;;;;;;11.93;2.92;;;;;;;;;;4991887;28;20058;-77
2022/10/30 08:23:20;;;;;;;11.82;3.08;;;;;;;;;;5004613;28;20052;-78
2022/10/30 08:25:47;;;;;;;13.95;3.28;;;;;;;;;;5004784;28;20045;-79
2022/10/30 08:28:13;;;;;;;7.38;2.60;;;;;;;;;;5008397;28;20056;-78
2022/10/30 08:30:40;;;;;;;11.65;3.45;;;;;;;;;;5006714;28;20138;-77
2022/10/30 08:33:09;;;;;;;9.93;3.15;;;;;;;;;;4985066;28;20054;-75
2022/10/30 08:35:35;;;;;;;14.48;3.13;;;;;;;;;;5005188;28;20049;-78
2022/10/30 08:38:07;;;;;;;12.50;2.63;;;;;;;;;;5018246;28;20544;-77
2022/10/30 08:40:33;;;;;;;13.27;3.33;;;;;;;;;;5009166;28;20080;-80
2022/10/30 08:42:59;;;;;;;9.90;3.45;;;;;;;;;;5017728;28;20054;-80
2022/10/30 08:45:26;;;;;;;8.68;2.95;;;;;;;;;;4990586;28;20057;-80
2022/10/30 08:47:57;;;;;;;14.65;2.90;;;;;;;;;;5008769;28;20418;-78
2022/10/30 08:50:24;;;;;;;12.35;3.05;;;;;;;;;;4999737;28;20050;-78
2022/10/30 08:52:51;;;;;;;8.55;2.50;;;;;;;;;;5005833;28;20046;-77
2022/10/30 08:55:20;;;;;;;14.20;3.40;;;;;;;;;;5003613;28;20685;-79
2022/10/30 08:57:46;;;;;;;16.92;3.17;;;;;;;;;;5004421;28;20433;-76
2022/10/30 09:00:13;;;;;;;12.35;3.58;;;;;;;;;;5005977;28;20048;-77
2022/10/30 09:02:39;;;;;;;16.42;5.50;;;;;;;;;;5003070;28;20046;-77
2022/10/30 09:05:06;;;;;;;10.43;3.80;;;;;;;;;;5004498;28;20111;-77
2022/10/30 09:07:32;;;;;;;13.85;3.33;;;;;;;;;;5006864;28;20057;-77
2022/10/30 09:09:59;;;;;;;13.68;4.20;;;;;;;;;;5002809;28;20042;-77
2022/10/30 09:12:25;;;;;;;15.57;4.55;;;;;;;;;;5001960;28;20050;-76
2022/10/30 09:14:55;;;;;;;20.65;7.15;;;;;;;;;;5005434;28;20057;-77
2022/10/30 09:17:21;;;;;;;30.45;12.85;;;;;;;;;;5004093;28;20060;-76
2022/10/30 09:19:48;;;;;;;31.08;13.50;;;;;;;;;;5002972;28;20060;-76
2022/10/30 09:22:14;;;;;;;29.45;13.38;;;;;;;;;;5003485;28;20054;-77
2022/10/30 09:24:40;;;;;;;29.10;13.23;;;;;;;;;;5003829;28;20054;-77
2022/10/30 09:27:07;;;;;;;26.73;11.10;;;;;;;;;;5006465;28;20072;-79
2022/10/30 09:29:34;;;;;;;36.80;5.70;;;;;;;;;;5007563;28;20053;-79
2022/10/30 09:32:00;;;;;;;12.75;4.05;;;;;;;;;;5008815;28;20046;-76
2022/10/30 09:34:27;;;;;;;13.52;3.90;;;;;;;;;;5010391;28;20041;-79
2022/10/30 09:36:54;;;;;;;11.38;5.00;;;;;;;;;;5010246;28;20581;-79
2022/10/30 09:39:20;;;;;;;15.48;3.42;;;;;;;;;;5007270;28;20061;-79
2022/10/30 09:41:53;;;;;;;14.73;3.00;;;;;;;;;;5018219;28;20057;-78
2022/10/30 09:44:38;;;;;;;15.80;2.88;;;;;;;;;;5011492;28;20425;-79
2022/10/30 09:47:23;;;;;;;13.65;3.47;;;;;;;;;;5011663;28;20050;-79
2022/10/30 09:49:52;;;;;;;13.05;3.60;;;;;;;;;;4990072;28;20050;-78
2022/10/30 09:52:27;;;;;;;13.20;3.75;;;;;;;;;;4995256;28;20045;-77
2022/10/30 09:55:00;;;;;;;13.57;3.35;;;;;;;;;;5008248;28;20050;-78
2022/10/30 09:57:45;;;;;;;9.07;3.17;;;;;;;;;;5010937;28;20058;-78
2022/10/30 10:00:13;;;;;;;12.55;3.53;;;;;;;;;;5010273;28;20050;-78
2022/10/30 10:02:52;;;;;;;14.30;3.40;;;;;;;;;;5004117;28;20046;-77
2022/10/30 10:05:30;;;;;;;9.15;2.97;;;;;;;;;;4990664;28;20053;-78
2022/10/30 10:07:59;;;;;;;15.18;3.40;;;;;;;;;;5015907;28;20107;-77
2022/10/30 10:10:41;;;;;;;9.25;3.15;;;;;;;;;;5012675;28;20123;-78
2022/10/30 10:13:14;;;;;;;10.07;3.00;;;;;;;;;;5011333;28;20052;-77
2022/10/30 10:15:45;;;;;;;10.18;3.05;;;;;;;;;;5011257;28;20049;-77
2022/10/30 10:18:21;;;;;;;9.65;3.20;;;;;;;;;;5010146;28;20565;-79
2022/10/30 10:20:50;;;;;;;12.15;3.40;;;;;;;;;;5002250;28;20046;-79
2022/10/30 10:23:18;;;;;;;15.25;3.28;;;;;;;;;;4991823;28;20061;-78
2022/10/30 10:26:07;;;;;;;9.80;3.00;;;;;;;;;;4991260;28;20053;-77
2022/10/30 10:28:39;;;;;;;10.30;3.00;;;;;;;;;;5007483;28;20480;-79
2022/10/30 10:31:06;;;;;;;14.15;3.05;;;;;;;;;;5016343;28;20162;-78
2022/10/30 10:33:41;;;;;;;12.30;3.05;;;;;;;;;;5012978;28;20050;-79
2022/10/30 10:36:16;;;;;;;18.88;3.08;;;;;;;;;;5011435;28;20050;-78
2022/10/30 10:39:01;;;;;;;8.60;2.83;;;;;;;;;;5008293;28;20046;-78
2022/10/30 10:41:30;;;;;;;19.58;3.53;;;;;;;;;;5009426;28;20062;-77
2022/10/30 10:44:03;;;;;;;16.08;3.15;;;;;;;;;;4990546;28;20053;-78
2022/10/30 10:46:49;;;;;;;14.52;2.85;;;;;;;;;;5008504;28;20056;-78
2022/10/30 10:49:28;;;;;;;10.48;2.97;;;;;;;;;;5006342;28;20052;-77
2022/10/30 10:52:02;;;;;;;18.48;2.50;;;;;;;;;;5008198;28;20060;-79
2022/10/30 10:54:35;;;;;;;15.02;3.03;;;;;;;;;;5008633;28;20060;-79
2022/10/30 10:57:03;;;;;;;16.05;2.95;;;;;;;;;;4991953;28;20045;-77
2022/10/30 10:59:30;;;;;;;13.23;2.75;;;;;;;;;;5013688;28;20046;-77
2022/10/30 11:02:12;;;;;;;10.98;2.75;;;;;;;;;;5009420;28;20045;-77
2022/10/30 11:04:40;;;;;;;13.00;2.47;;;;;;;;;;5007349;28;20063;-77
2022/10/30 11:07:12;;;;;;;12.25;3.10;;;;;;;;;;5008491;28;20046;-78
2022/10/30 11:09:39;;;;;;;9.55;2.60;;;;;;;;;;5010441;28;20054;-78
2022/10/30 11:12:05;;;;;;;12.50;3.05;;;;;;;;;;5014996;28;20069;-77
2022/10/30 11:14:32;;;;;;;11.98;2.97;;;;;;;;;;5014305;28;20057;-78
2022/10/30 11:17:01;;;;;;;13.73;3.50;;;;;;;;;;5029651;28;20053;-79
2022/10/30 11:19:29;;;;;;;13.73;3.33;;;;;;;;;;5032703;28;20046;-77
2022/10/30 11:21:56;;;;;;;13.60;3.17;;;;;;;;;;5018929;28;20136;-78
2022/10/30 11:24:26;;;;;;;13.32;3.45;;;;;;;;;;5006523;28;20145;-77
2022/10/30 11:26:52;;;;;;;12.48;3.63;;;;;;;;;;5008897;28;20054;-78
2022/10/30 11:29:23;;;;;;;18.40;3.72;;;;;;;;;;5008120;28;20060;-77
2022/10/30 11:32:03;;;;;;;17.73;4.38;;;;;;;;;;4991425;28;20037;-78
2022/10/30 11:34:35;;;;;;;12.00;4.03;;;;;;;;;;5007065;28;20069;-77
2022/10/30 11:37:03;;;;;;;16.20;3.92;;;;;;;;;;5009612;28;20046;-78
2022/10/30 11:39:30;;;;;;;22.55;4.05;;;;;;;;;;5003168;28;20046;-77
2022/10/30 11:41:56;;;;;;;13.70;3.78;;;;;;;;;;5008563;28;20061;-79
2022/10/30 11:44:25;;;;;;;16.70;3.60;;;;;;;;;;5007312;28;20403;-78
2022/10/30 11:46:52;;;;;;;12.40;3.20;;;;;;;;;;5011444;28;20436;-77
2022/10/30 11:49:26;;;;;;;17.80;3.38;;;;;;;;;;5013035;28;20054;-79
2022/10/30 11:51:52;;;;;;;11.20;3.35;;;;;;;;;;4989897;28;20490;-79
2022/10/30 11:54:20;;;;;;;11.07;3.08;;;;;;;;;;5006758;28;20052;-77
2022/10/30 11:56:50;;;;;;;11.45;3.33;;;;;;;;;;5009332;28;20476;-79
2022/10/30 11:59:17;;;;;;;9.88;3.13;;;;;;;;;;5008269;28;20050;-78
2022/10/30 12:01:58;;;;;;;13.48;2.88;;;;;;;;;;5009960;28;20041;-79
2022/10/30 12:04:26;;;;;;;15.75;3.33;;;;;;;;;;4990339;28;20049;-76
2022/10/30 12:07:06;;;;;;;10.93;3.00;;;;;;;;;;5009352;28;20053;-79
2022/10/30 12:09:40;;;;;;;16.67;3.53;;;;;;;;;;5005517;28;20057;-79
2022/10/30 12:12:21;;;;;;;16.65;3.22;;;;;;;;;;5008313;28;20054;-77
2022/10/30 12:14:47;;;;;;;15.40;3.33;;;;;;;;;;5005496;28;20047;-80
2022/10/30 12:17:15;;;;;;;15.27;3.20;;;;;;;;;;5010056;28;20052;-79
2022/10/30 12:19:45;;;;;;;17.65;3.20;;;;;;;;;;5010194;28;20787;-79
2022/10/30 12:22:22;;;;;;;15.40;3.10;;;;;;;;;;5010346;28;20086;-80
2022/10/30 12:24:48;;;;;;;12.63;2.70;;;;;;;;;;5007485;28;20057;-79
2022/10/30 12:27:16;;;;;;;13.32;2.92;;;;;;;;;;5009752;28;20049;-80
2022/10/30 12:30:05;;;;;;;12.13;3.03;;;;;;;;;;5010519;28;20057;-78
2022/10/30 12:32:40;;;;;;;9.70;2.72;;;;;;;;;;5012277;28;20092;-79
2022/10/30 12:35:19;;;;;;;13.40;3.10;;;;;;;;;;4995893;28;20050;-78
2022/10/30 12:37:46;;;;;;;15.18;3.00;;;;;;;;;;5019041;28;20123;-79
2022/10/30 12:40:19;;;;;;;10.20;2.75;;;;;;;;;;5025034;28;20049;-79
2022/10/30 12:43:05;;;;;;;13.85;3.38;;;;;;;;;;5030874;28;20072;-77
2022/10/30 12:45:42;;;;;;;15.73;3.58;;;;;;;;;;5008863;28;20064;-78
2022/10/30 12:48:12;;;;;;;14.52;2.63;;;;;;;;;;5009211;28;20054;-77
2022/10/30 12:50:45;;;;;;;12.75;2.95;;;;;;;;;;5007075;28;20069;-78
2022/10/30 12:53:17;;;;;;;16.25;3.10;;;;;;;;;;5004081;28;20057;-79
2022/10/30 12:55:48;;;;;;;14.65;3.05;;;;;;;;;;4988798;28;20049;-79
2022/10/30 12:58:21;;;;;;;15.85;2.90;;;;;;;;;;5006158;28;20042;-79
2022/10/30 13:01:10;;;;;;;12.57;3.38;;;;;;;;;;5006186;28;20129;-79
2022/10/30 13:03:51;;;;;;;21.05;3.22;;;;;;;;;;4984327;28;20081;-78
2022/10/30 13:06:22;;;;;;;15.30;2.70;;;;;;;;;;5008719;28;20078;-78
2022/10/30 13:08:51;;;;;;;15.65;2.90;;;;;;;;;;5009202;28;20041;-78
2022/10/30 13:11:36;;;;;;;14.63;3.15;;;;;;;;;;4990857;28;20058;-78
2022/10/30 13:14:04;;;;;;;14.60;2.65;;;;;;;;;;5008572;28;20049;-78
2022/10/30 13:16:31;;;;;;;22.25;3.28;;;;;;;;;;5017845;28;20052;-78
2022/10/30 13:19:00;;;;;;;14.18;2.65;;;;;;;;;;5021936;28;20049;-78
2022/10/30 13:21:46;;;;;;;13.10;2.58;;;;;;;;;;5033650;28;20046;-76
2022/10/30 13:24:31;;;;;;;10.65;3.03;;;;;;;;;;5014969;28;20748;-78
2022/10/30 13:27:12;;;;;;;10.90;3.10;;;;;;;;;;5023682;28;20130;-77
2022/10/30 13:29:41;;;;;;;13.55;3.05;;;;;;;;;;5019670;28;20846;-77
2022/10/30 13:32:23;;;;;;;13.52;3.20;;;;;;;;;;5019429;28;20054;-77
2022/10/30 13:34:50;;;;;;;12.30;2.72;;;;;;;;;;5013022;28;20050;-77
2022/10/30 13:37:19;;;;;;;12.18;2.60;;;;;;;;;;5017229;28;20077;-77
2022/10/30 13:40:07;;;;;;;21.17;2.95;;;;;;;;;;5010360;28;20050;-78
2022/10/30 13:42:44;;;;;;;15.52;2.88;;;;;;;;;;5010810;28;20045;-77
2022/10/30 13:45:20;;;;;;;10.82;2.88;;;;;;;;;;4996581;28;20050;-77
2022/10/30 13:48:01;;;;;;;11.77;2.80;;;;;;;;;;5009153;28;20050;-78
2022/10/30 13:50:28;;;;;;;14.50;2.55;;;;;;;;;;5004889;28;20069;-76
2022/10/30 13:52:57;;;;;;;16.35;3.30;;;;;;;;;;5005340;28;20060;-77
2022/10/30 13:55:28;;;;;;;20.73;3.08;;;;;;;;;;5006435;28;20058;-77
2022/10/30 13:58:14;;;;;;;10.65;2.80;;;;;;;;;;5006295;28;20041;-78
2022/10/30 14:00:50;;;;;;;12.93;2.35;;;;;;;;;;5003506;28;20050;-77
2022/10/30 14:03:16;;;;;;;;;;;;;;;;;;5005454;28;20064;-76
2022/10/30 14:05:42;;;;;;;;;;;;;;;;;;5003834;28;20000;-76
2022/10/30 14:08:09;;;;;;;;;;;;;;;;;;5007188;28;19932;-76
2022/10/30 14:10:49;;;;;;;12.07;2.70;;;;;;;;;;5007531;28;19932;-78
2022/10/30 14:13:25;;;;;;;14.52;2.80;;;;;;;;;;5004703;28;20117;-77
2022/10/30 14:15:58;;;;;;;10.20;2.78;;;;;;;;;;5005990;28;20042;-77
2022/10/30 14:18:27;;;;;;;13.40;3.05;;;;;;;;;;4988965;28;20045;-76
2022/10/30 14:20:55;;;;;;;12.82;3.60;;;;;;;;;;5006113;28;20335;-77
2022/10/30 14:23:23;;;;;;;20.67;3.38;;;;;;;;;;4990900;28;20042;-78
2022/10/30 14:26:04;;;;;;;12.25;2.92;;;;;;;;;;5006158;28;20058;-78
2022/10/30 14:28:38;;;;;;;14.57;5.38;;;;;;;;;;5005176;28;20533;-78
2022/10/30 14:31:06;;;;;;;12.98;3.17;;;;;;;;;;5007240;28;20053;-78
2022/10/30 14:33:32;;;;;;;18.80;3.10;;;;;;;;;;4992462;28;20034;-77
2022/10/30 14:36:17;;;;;;;15.88;2.63;;;;;;;;;;5034227;28;20042;-77
2022/10/30 14:38:52;;;;;;;14.68;2.17;;;;;;;;;;5037133;28;20073;-78
2022/10/30 14:41:21;;;;;;;11.57;2.97;;;;;;;;;;5013465;28;20058;-79
2022/10/30 14:44:11;;;;;;;12.20;2.50;;;;;;;;;;5000549;28;20534;-78